Time;durP1;ratioP1;P1;durP2;ratioP2;P2;SDS_P1;SDS_P2;PMS_P1;PMS_P2;Temp;Humidity;BMP_temperature;BMP_pressure;BME280_temperature;BME280_humidity;BME280_pressure;Samples;Min_cycle;Max_cycle;Signal;HPM_P1;HPM_P2
2023/05/02 00:01:36;;;;;;;14.40;12.90;;;8.90;99.90;;;;;;5002150;28;20465;-73
2023/05/02 00:04:03;;;;;;;15.03;13.57;;;8.90;99.90;;;;;;5002040;28;20490;-75
2023/05/02 00:06:31;;;;;;;14.90;13.40;;;9.00;99.90;;;;;;4994729;28;20999;-73
2023/05/02 00:08:58;;;;;;;14.40;13.00;;;8.70;99.90;;;;;;4993606;28;20483;-73
2023/05/02 00:11:24;;;;;;;13.57;11.50;;;8.50;99.90;;;;;;4998449;28;21003;-74
2023/05/02 00:13:51;;;;;;;14.70;13.20;;;8.40;99.90;;;;;;4992257;28;20482;-74
2023/05/02 00:16:18;;;;;;;14.33;13.00;;;8.30;99.90;;;;;;5004681;28;21806;-73
2023/05/02 00:18:48;;;;;;;15.13;13.53;;;8.20;99.90;;;;;;4998263;28;20491;-74
2023/05/02 00:21:14;;;;;;;16.03;14.30;;;8.20;99.90;;;;;;4992401;28;20556;-74
2023/05/02 00:23:42;;;;;;;15.30;13.83;;;8.20;99.90;;;;;;4996480;28;20489;-73
2023/05/02 00:26:09;;;;;;;16.27;14.57;;;8.20;99.90;;;;;;4997074;28;20495;-73
2023/05/02 00:28:36;;;;;;;16.43;13.40;;;8.20;99.90;;;;;;4999727;28;20467;-75
2023/05/02 00:31:04;;;;;;;15.37;13.73;;;8.10;99.90;;;;;;4991857;28;20460;-73
2023/05/02 00:33:31;;;;;;;14.00;12.73;;;8.30;99.90;;;;;;4994659;28;20479;-75
2023/05/02 00:35:59;;;;;;;13.53;12.23;;;8.20;99.90;;;;;;4998111;28;21499;-74
2023/05/02 00:38:26;;;;;;;13.90;12.60;;;8.10;99.90;;;;;;4999153;28;20546;-74
2023/05/02 00:40:53;;;;;;;16.53;13.83;;;8.00;99.90;;;;;;5002262;28;20477;-73
2023/05/02 00:43:20;;;;;;;15.57;13.97;;;8.10;99.90;;;;;;4990929;28;20481;-73
2023/05/02 00:45:47;;;;;;;15.10;13.60;;;8.10;99.90;;;;;;5001976;28;20466;-74
2023/05/02 00:48:14;;;;;;;13.70;12.40;;;8.20;99.90;;;;;;4989133;28;20467;-75
2023/05/02 00:50:42;;;;;;;13.80;12.40;;;8.10;99.90;;;;;;4995476;28;20460;-75
2023/05/02 00:53:11;;;;;;;13.93;12.57;;;8.00;99.90;;;;;;4996612;28;21066;-74
2023/05/02 00:55:38;;;;;;;15.60;14.07;;;8.00;99.90;;;;;;4994782;28;20463;-74
2023/05/02 00:58:08;;;;;;;14.60;13.20;;;7.90;99.90;;;;;;5005577;28;20549;-74
2023/05/02 01:00:46;;;;;;;14.27;12.87;;;7.90;99.90;;;;;;4993123;28;20998;-74
2023/05/02 01:03:31;;;;;;;14.87;13.47;;;7.80;99.90;;;;;;4990087;28;20482;-76
2023/05/02 01:06:10;;;;;;;13.97;12.67;;;7.80;99.90;;;;;;4994546;28;20470;-74
2023/05/02 01:08:43;;;;;;;15.13;13.50;;;7.80;99.90;;;;;;4990975;28;20474;-74
2023/05/02 01:11:16;;;;;;;14.60;12.80;;;7.80;99.90;;;;;;4992449;28;20469;-74
2023/05/02 01:13:44;;;;;;;14.83;13.33;;;7.80;99.90;;;;;;4991920;28;20552;-73
2023/05/02 01:16:13;;;;;;;15.37;13.87;;;7.90;99.90;;;;;;4991370;28;20459;-73
2023/05/02 01:18:42;;;;;;;15.10;13.60;;;8.00;99.90;;;;;;4998806;28;20468;-73
2023/05/02 01:21:11;;;;;;;15.13;13.73;;;8.00;99.90;;;;;;4989923;28;20500;-73
2023/05/02 01:23:50;;;;;;;15.47;14.00;;;7.90;99.90;;;;;;4988027;28;20587;-74
2023/05/02 01:26:24;;;;;;;14.93;13.33;;;7.90;99.90;;;;;;4990299;28;20469;-73
2023/05/02 01:29:03;;;;;;;14.70;13.00;;;8.00;99.90;;;;;;4990743;28;20474;-73
2023/05/02 01:31:35;;;;;;;14.10;12.60;;;8.20;99.90;;;;;;5004691;28;20458;-74
2023/05/02 01:34:04;;;;;;;14.70;13.13;;;8.10;99.90;;;;;;4998269;28;20481;-73
2023/05/02 01:36:33;;;;;;;14.43;13.00;;;8.00;99.90;;;;;;4995931;28;21003;-73
2023/05/02 01:39:02;;;;;;;13.80;12.50;;;8.10;99.90;;;;;;4996657;28;20466;-73
2023/05/02 01:41:31;;;;;;;13.63;12.30;;;8.00;99.90;;;;;;4996121;28;20455;-73
2023/05/02 01:44:01;;;;;;;14.87;12.33;;;8.00;99.90;;;;;;4993588;28;20486;-73
2023/05/02 01:46:33;;;;;;;12.70;11.40;;;8.00;99.90;;;;;;4996322;28;20574;-74
2023/05/02 01:49:03;;;;;;;14.33;12.37;;;8.00;99.90;;;;;;5001787;28;20461;-73
2023/05/02 01:51:35;;;;;;;14.03;12.53;;;7.90;99.90;;;;;;5000774;28;20471;-75
2023/05/02 01:54:04;;;;;;;13.60;12.30;;;7.90;99.90;;;;;;4995844;28;21527;-73
2023/05/02 01:56:33;;;;;;;14.17;12.77;;;7.90;99.90;;;;;;5006554;28;20508;-74
2023/05/02 01:59:02;;;;;;;13.83;12.03;;;7.90;99.90;;;;;;5001339;28;20472;-74
2023/05/02 02:01:30;;;;;;;13.70;12.40;;;7.80;99.90;;;;;;5002214;28;20461;-74
2023/05/02 02:03:59;;;;;;;16.27;13.47;;;7.80;99.90;;;;;;5005703;28;20479;-74
2023/05/02 02:06:27;;;;;;;16.00;13.97;;;7.90;99.90;;;;;;5000934;28;20464;-74
2023/05/02 02:08:54;;;;;;;15.80;13.33;;;8.00;99.90;;;;;;5002787;28;20526;-75
2023/05/02 02:11:26;;;;;;;14.73;13.00;;;8.10;99.90;;;;;;5001620;28;20496;-74
2023/05/02 02:14:00;;;;;;;15.00;13.40;;;8.10;99.90;;;;;;4995475;28;20489;-74
2023/05/02 02:16:33;;;;;;;14.77;13.17;;;8.20;99.90;;;;;;4993584;28;20468;-74
2023/05/02 02:19:06;;;;;;;15.17;13.60;;;8.20;99.90;;;;;;4989576;28;20470;-75
2023/05/02 02:21:34;;;;;;;17.17;14.87;;;8.20;99.90;;;;;;4995206;28;20557;-74
2023/05/02 02:24:03;;;;;;;16.93;12.37;;;8.20;99.90;;;;;;5001756;28;20484;-75
2023/05/02 02:26:30;;;;;;;14.03;12.00;;;8.20;99.90;;;;;;5000377;28;20956;-76
2023/05/02 02:28:57;;;;;;;13.87;12.40;;;8.10;99.90;;;;;;4999682;28;20450;-74
2023/05/02 02:31:30;;;;;;;14.70;12.50;;;8.10;99.90;;;;;;5004320;28;20472;-75
2023/05/02 02:33:58;;;;;;;13.27;12.03;;;7.90;99.90;;;;;;4993570;28;21006;-75
2023/05/02 02:36:31;;;;;;;13.27;11.97;;;8.00;99.90;;;;;;4995418;28;20848;-76
2023/05/02 02:39:18;;;;;;;14.10;12.60;;;7.90;99.90;;;;;;5003836;28;20849;-74
2023/05/02 02:41:55;;;;;;;12.70;11.40;;;7.70;99.90;;;;;;4996785;28;20844;-75
2023/05/02 02:44:33;;;;;;;15.03;13.33;;;7.60;99.90;;;;;;4997213;28;20921;-74
2023/05/02 02:47:07;;;;;;;13.77;11.40;;;7.50;99.90;;;;;;4995199;28;20553;-74
2023/05/02 02:49:46;;;;;;;15.20;13.70;;;7.40;99.90;;;;;;5007874;28;20978;-75
2023/05/02 02:52:21;;;;;;;12.50;11.03;;;7.40;99.90;;;;;;4993928;28;20459;-74
2023/05/02 02:54:59;;;;;;;14.40;12.77;;;7.40;99.90;;;;;;4991515;28;20490;-75
2023/05/02 02:57:31;;;;;;;14.60;11.40;;;7.30;99.90;;;;;;4999438;28;20837;-75
2023/05/02 03:00:02;;;;;;;13.87;12.10;;;7.20;99.90;;;;;;5003006;28;20489;-75
2023/05/02 03:02:32;;;;;;;14.80;13.03;;;7.30;99.90;;;;;;4996650;28;20549;-75
2023/05/02 03:05:02;;;;;;;14.83;13.33;;;7.40;99.90;;;;;;4997570;28;20490;-74
2023/05/02 03:07:29;;;;;;;17.73;13.93;;;7.40;99.90;;;;;;5001655;28;20457;-75
2023/05/02 03:09:56;;;;;;;13.00;11.83;;;7.50;99.90;;;;;;4991370;28;20823;-75
2023/05/02 03:12:23;;;;;;;12.13;10.93;;;7.40;99.90;;;;;;4993551;28;20471;-74
2023/05/02 03:14:50;;;;;;;13.73;12.53;;;7.40;99.90;;;;;;5000848;28;20483;-75
2023/05/02 03:17:17;;;;;;;14.00;12.50;;;7.40;99.90;;;;;;4997363;28;20468;-75
2023/05/02 03:19:44;;;;;;;14.00;11.73;;;7.30;99.90;;;;;;4997464;28;20487;-75
2023/05/02 03:22:12;;;;;;;12.90;11.60;;;7.40;99.90;;;;;;4995939;28;20474;-75
2023/05/02 03:24:39;;;;;;;12.93;11.73;;;7.60;99.90;;;;;;4997574;28;20486;-74
2023/05/02 03:27:06;;;;;;;13.63;11.47;;;7.70;99.90;;;;;;5000984;28;20928;-74
2023/05/02 03:29:32;;;;;;;11.50;10.30;;;7.70;99.90;;;;;;4993336;28;20594;-75
2023/05/02 03:32:00;;;;;;;13.50;12.20;;;7.70;99.90;;;;;;4996280;28;20452;-75
2023/05/02 03:34:26;;;;;;;13.37;11.93;;;7.50;99.90;;;;;;4990407;28;21111;-75
2023/05/02 03:36:53;;;;;;;15.30;13.80;;;7.50;99.90;;;;;;4994390;28;20471;-76
2023/05/02 03:39:21;;;;;;;14.03;12.63;;;7.50;99.90;;;;;;4993310;28;20474;-75
2023/05/02 03:41:48;;;;;;;13.27;11.87;;;7.50;99.90;;;;;;4994798;28;20446;-76
2023/05/02 03:44:15;;;;;;;14.10;12.60;;;7.60;99.90;;;;;;4997462;28;21661;-75
2023/05/02 03:46:42;;;;;;;14.30;13.00;;;7.80;99.90;;;;;;4992198;28;20472;-74
2023/05/02 03:49:08;;;;;;;15.53;13.53;;;7.80;99.90;;;;;;4993329;28;20471;-76
2023/05/02 03:51:35;;;;;;;13.60;12.30;;;7.90;99.90;;;;;;4993984;28;20481;-75
2023/05/02 03:54:02;;;;;;;14.90;13.47;;;8.00;99.90;;;;;;4995437;28;20480;-74
2023/05/02 03:56:30;;;;;;;14.73;13.33;;;8.00;99.90;;;;;;4996729;28;20458;-75
2023/05/02 03:58:57;;;;;;;15.00;13.47;;;8.10;99.90;;;;;;4996250;28;20569;-75
2023/05/02 04:01:24;;;;;;;14.83;13.37;;;8.20;99.90;;;;;;5001661;28;20477;-75
2023/05/02 04:03:52;;;;;;;16.77;15.00;;;8.30;99.90;;;;;;4996607;28;21104;-75
2023/05/02 04:06:19;;;;;;;14.10;12.60;;;8.30;99.90;;;;;;4990977;28;20866;-75
2023/05/02 04:08:46;;;;;;;14.63;13.07;;;8.50;99.90;;;;;;4994132;28;21039;-76
2023/05/02 04:11:13;;;;;;;14.00;12.60;;;8.60;99.90;;;;;;4990744;28;20467;-74
2023/05/02 04:13:41;;;;;;;12.20;10.80;;;8.60;99.90;;;;;;4991095;28;20480;-72
2023/05/02 04:16:09;;;;;;;13.80;12.37;;;8.60;99.90;;;;;;4997300;28;20472;-75
2023/05/02 04:18:36;;;;;;;13.27;11.97;;;8.50;99.90;;;;;;5000074;28;21002;-75
2023/05/02 04:21:02;;;;;;;13.30;11.90;;;8.50;99.90;;;;;;5003389;28;20488;-74
2023/05/02 04:23:29;;;;;;;13.73;12.33;;;8.50;99.90;;;;;;4987507;28;20873;-75
2023/05/02 04:25:56;;;;;;;15.33;13.83;;;8.40;99.90;;;;;;5004673;28;20462;-74
2023/05/02 04:28:23;;;;;;;16.13;13.60;;;8.40;99.90;;;;;;4993853;28;20574;-74
2023/05/02 04:30:52;;;;;;;15.17;13.77;;;8.50;99.90;;;;;;4999311;28;20541;-74
2023/05/02 04:33:19;;;;;;;14.90;13.50;;;8.50;99.90;;;;;;4994053;28;20488;-74
2023/05/02 04:35:46;;;;;;;14.37;12.93;;;8.60;99.90;;;;;;4990589;28;20469;-75
2023/05/02 04:38:14;;;;;;;15.50;14.10;;;8.60;99.90;;;;;;4993203;28;20579;-74
2023/05/02 04:40:41;;;;;;;14.70;13.27;;;8.70;99.90;;;;;;4991062;28;20709;-73
2023/05/02 04:43:08;;;;;;;15.43;13.23;;;8.80;99.90;;;;;;4998581;28;20501;-76
2023/05/02 04:45:36;;;;;;;14.87;13.33;;;8.80;99.90;;;;;;4998093;28;20477;-76
2023/05/02 04:48:05;;;;;;;16.70;14.20;;;8.80;99.90;;;;;;5002435;28;20500;-72
2023/05/02 04:50:32;;;;;;;14.50;13.03;;;8.90;99.90;;;;;;4993572;28;21002;-74
2023/05/02 04:52:59;;;;;;;14.80;13.30;;;9.00;99.90;;;;;;4998644;28;20464;-75
2023/05/02 04:55:25;;;;;;;15.17;13.57;;;9.00;99.90;;;;;;4989303;28;20474;-75
2023/05/02 04:57:52;;;;;;;16.10;14.17;;;9.10;99.90;;;;;;4998440;28;20471;-74
2023/05/02 05:00:20;;;;;;;15.97;14.37;;;9.20;99.90;;;;;;4990842;28;21205;-75
2023/05/02 05:02:47;;;;;;;15.13;13.63;;;9.10;99.90;;;;;;4995458;28;20469;-74
2023/05/02 05:05:15;;;;;;;15.77;14.10;;;9.20;99.90;;;;;;5002582;28;20468;-73
2023/05/02 05:07:42;;;;;;;16.50;13.80;;;9.30;99.90;;;;;;4997126;28;20840;-75
2023/05/02 05:10:11;;;;;;;15.40;13.40;;;9.40;99.90;;;;;;5001006;28;20465;-75
2023/05/02 05:12:38;;;;;;;13.43;12.00;;;9.50;99.90;;;;;;5005001;28;21151;-75
2023/05/02 05:15:05;;;;;;;14.47;12.87;;;9.60;99.90;;;;;;5005949;28;20494;-74
2023/05/02 05:17:32;;;;;;;15.17;13.63;;;9.60;99.90;;;;;;5002748;28;20854;-76
2023/05/02 05:19:59;;;;;;;16.00;14.50;;;9.60;99.90;;;;;;4998196;28;21319;-75
2023/05/02 05:22:27;;;;;;;18.10;15.67;;;9.60;99.90;;;;;;4991887;28;20460;-76
2023/05/02 05:24:54;;;;;;;18.10;15.13;;;9.60;99.90;;;;;;5003761;28;20490;-76
2023/05/02 05:27:21;;;;;;;16.40;14.13;;;9.60;99.90;;;;;;4991493;28;20476;-76
2023/05/02 05:29:48;;;;;;;14.63;13.13;;;9.70;99.90;;;;;;5001337;28;20462;-76
2023/05/02 05:32:15;;;;;;;14.80;13.27;;;9.80;99.90;;;;;;4997064;28;20972;-76
2023/05/02 05:34:42;;;;;;;14.60;13.00;;;9.90;99.90;;;;;;4998533;28;20488;-78
2023/05/02 05:37:09;;;;;;;16.00;14.17;;;10.10;99.90;;;;;;4995718;28;20463;-76
2023/05/02 05:39:37;;;;;;;16.43;14.80;;;10.20;99.90;;;;;;4997752;28;20480;-76
2023/05/02 05:42:04;;;;;;;14.93;13.43;;;10.30;99.90;;;;;;5009005;28;20881;-76
2023/05/02 05:44:31;;;;;;;16.93;15.17;;;10.40;99.90;;;;;;4997066;28;20482;-75
2023/05/02 05:46:58;;;;;;;14.77;13.37;;;10.50;99.90;;;;;;4992919;28;20470;-76
2023/05/02 05:49:25;;;;;;;15.37;13.70;;;10.60;99.90;;;;;;4995185;28;20598;-76
2023/05/02 05:51:52;;;;;;;15.90;12.93;;;10.80;99.90;;;;;;5006479;28;21214;-76
2023/05/02 05:54:19;;;;;;;14.67;13.17;;;10.80;99.90;;;;;;5003967;28;20580;-76
2023/05/02 05:56:47;;;;;;;14.23;12.83;;;10.90;99.90;;;;;;4995242;28;20459;-76
2023/05/02 05:59:14;;;;;;;13.67;12.37;;;10.90;99.90;;;;;;4994464;28;20466;-75
2023/05/02 06:01:41;;;;;;;14.47;13.07;;;10.90;99.90;;;;;;5010469;28;20848;-76
2023/05/02 06:04:08;;;;;;;14.73;13.37;;;10.90;99.90;;;;;;4996839;28;20537;-75
2023/05/02 06:06:35;;;;;;;14.30;11.67;;;10.90;99.90;;;;;;5001280;28;20559;-75
2023/05/02 06:09:02;;;;;;;12.30;11.33;;;11.10;99.90;;;;;;4999388;28;20480;-76
2023/05/02 06:11:29;;;;;;;13.83;12.70;;;11.30;99.90;;;;;;4995209;28;21490;-76
2023/05/02 06:13:57;;;;;;;13.00;11.70;;;11.50;99.90;;;;;;5000043;28;20480;-75
2023/05/02 06:16:24;;;;;;;12.27;11.13;;;11.70;99.90;;;;;;4994670;28;20463;-75
2023/05/02 06:18:52;;;;;;;12.93;11.43;;;11.90;99.90;;;;;;4999064;28;20463;-75
2023/05/02 06:21:19;;;;;;;14.20;12.90;;;11.90;99.60;;;;;;5005116;28;20484;-75
2023/05/02 06:23:46;;;;;;;13.50;12.20;;;11.90;99.70;;;;;;4994925;28;21011;-76
2023/05/02 06:26:13;;;;;;;13.10;11.90;;;11.90;99.70;;;;;;5011612;28;20698;-74
2023/05/02 06:28:40;;;;;;;13.50;12.30;;;11.70;99.60;;;;;;4997738;28;20470;-75
2023/05/02 06:31:08;;;;;;;14.77;12.90;;;11.70;99.90;;;;;;4999115;28;21753;-74
2023/05/02 06:33:35;;;;;;;14.57;13.07;;;11.70;99.90;;;;;;5000683;28;20494;-73
2023/05/02 06:36:02;;;;;;;14.70;13.40;;;11.70;99.80;;;;;;4999670;28;20460;-73
2023/05/02 06:38:29;;;;;;;15.20;13.80;;;11.90;99.90;;;;;;4996939;28;20465;-73
2023/05/02 06:40:56;;;;;;;15.47;13.97;;;12.00;98.30;;;;;;5002830;28;20598;-73
2023/05/02 06:43:23;;;;;;;16.27;14.87;;;12.00;99.40;;;;;;4995328;28;20488;-75
2023/05/02 06:45:53;;;;;;;16.90;15.20;;;12.10;99.10;;;;;;4994637;28;20470;-74
2023/05/02 06:48:21;;;;;;;15.27;13.93;;;12.30;98.80;;;;;;5000706;28;20482;-74
2023/05/02 06:50:48;;;;;;;14.53;13.23;;;12.40;98.30;;;;;;5006217;28;20455;-73
2023/05/02 06:53:15;;;;;;;15.70;14.30;;;12.50;97.70;;;;;;5000043;28;21240;-73
2023/05/02 06:55:42;;;;;;;15.57;14.17;;;12.50;97.60;;;;;;4998244;28;21461;-74
2023/05/02 06:58:09;;;;;;;14.67;13.47;;;12.50;98.00;;;;;;5004450;28;20479;-74
2023/05/02 07:00:36;;;;;;;16.77;15.00;;;12.50;96.70;;;;;;5001828;28;20484;-74
2023/05/02 07:03:02;;;;;;;15.30;13.80;;;12.40;96.40;;;;;;4996609;28;20812;-75
2023/05/02 07:05:31;;;;;;;15.77;14.37;;;12.30;95.70;;;;;;4998490;28;20470;-74
2023/05/02 07:07:58;;;;;;;20.43;14.93;;;12.20;96.30;;;;;;5000969;28;20954;-74
2023/05/02 07:10:25;;;;;;;16.37;14.87;;;12.30;96.70;;;;;;4996553;28;20461;-75
2023/05/02 07:12:52;;;;;;;16.37;14.83;;;12.30;96.70;;;;;;5002631;28;20812;-75
2023/05/02 07:15:19;;;;;;;17.83;16.13;;;12.40;96.40;;;;;;5001958;28;20464;-74
2023/05/02 07:17:46;;;;;;;17.33;15.43;;;12.30;96.20;;;;;;5005791;28;20468;-74
2023/05/02 07:20:14;;;;;;;17.87;16.17;;;12.30;96.00;;;;;;4999886;28;20483;-74
2023/05/02 07:22:42;;;;;;;18.23;16.57;;;12.30;96.30;;;;;;4995011;28;20497;-74
2023/05/02 07:25:10;;;;;;;20.27;17.57;;;12.30;96.10;;;;;;5002283;28;21302;-74
2023/05/02 07:27:36;;;;;;;16.67;15.17;;;12.40;95.70;;;;;;4998133;28;20496;-75
2023/05/02 07:30:04;;;;;;;19.50;17.70;;;12.40;95.90;;;;;;5006224;28;21645;-73
2023/05/02 07:32:31;;;;;;;18.80;17.10;;;12.40;95.40;;;;;;4997121;28;20537;-75
2023/05/02 07:34:58;;;;;;;18.07;16.37;;;12.30;95.40;;;;;;5005101;28;20484;-74
2023/05/02 07:37:25;;;;;;;18.93;17.00;;;12.40;95.20;;;;;;4997050;28;20467;-74
2023/05/02 07:39:53;;;;;;;21.10;19.10;;;12.50;95.80;;;;;;5002820;28;20477;-75
2023/05/02 07:42:20;;;;;;;20.77;18.77;;;12.50;95.40;;;;;;5000617;28;20488;-75
2023/05/02 07:44:47;;;;;;;19.73;17.83;;;12.60;95.50;;;;;;4992568;28;21076;-76
2023/05/02 07:47:13;;;;;;;19.93;18.03;;;12.80;95.00;;;;;;4995728;28;20463;-74
2023/05/02 07:49:40;;;;;;;20.80;18.70;;;12.80;94.30;;;;;;4999801;28;20472;-73
2023/05/02 07:52:07;;;;;;;20.80;18.73;;;12.90;95.40;;;;;;4997287;28;21824;-73
2023/05/02 07:54:34;;;;;;;19.87;17.97;;;13.10;94.80;;;;;;4997869;28;20489;-74
2023/05/02 07:57:04;;;;;;;21.10;18.83;;;13.30;94.40;;;;;;4994687;28;20476;-73
2023/05/02 07:59:31;;;;;;;21.30;19.30;;;13.50;94.10;;;;;;5008613;28;20964;-75
2023/05/02 08:01:58;;;;;;;24.05;21.85;;;13.40;92.10;;;;;;4997167;28;20539;-74
2023/05/02 08:04:25;;;;;;;22.57;20.47;;;13.20;92.90;;;;;;5000678;28;20231;-75
2023/05/02 08:06:52;;;;;;;26.40;20.87;;;13.10;93.70;;;;;;4998811;28;20475;-74
2023/05/02 08:09:18;;;;;;;22.47;20.30;;;13.10;94.60;;;;;;5002301;28;20466;-74
2023/05/02 08:11:45;;;;;;;21.57;19.47;;;13.20;93.90;;;;;;5000071;28;20475;-73
2023/05/02 08:14:15;;;;;;;22.60;20.30;;;13.30;93.20;;;;;;4992153;28;20504;-73
2023/05/02 08:16:42;;;;;;;22.90;20.47;;;13.50;92.70;;;;;;5001622;28;20985;-74
2023/05/02 08:19:09;;;;;;;23.00;20.70;;;13.70;91.70;;;;;;4997731;28;20466;-74
2023/05/02 08:21:36;;;;;;;25.20;22.60;;;13.90;92.40;;;;;;4991982;28;20482;-74
2023/05/02 08:24:03;;;;;;;22.73;20.53;;;13.90;91.30;;;;;;4991057;28;20484;-74
2023/05/02 08:26:30;;;;;;;25.13;22.63;;;13.90;91.00;;;;;;4995056;28;20469;-74
2023/05/02 08:28:57;;;;;;;24.53;21.27;;;14.00;92.60;;;;;;5001473;28;20489;-74
2023/05/02 08:31:25;;;;;;;23.70;21.30;;;14.10;90.70;;;;;;4997183;28;20467;-74
2023/05/02 08:33:52;;;;;;;24.83;22.23;;;14.10;90.50;;;;;;4993059;28;20486;-73
2023/05/02 08:36:19;;;;;;;23.57;21.37;;;14.10;91.40;;;;;;4996333;28;20476;-74
2023/05/02 08:38:46;;;;;;;25.20;22.50;;;14.30;90.30;;;;;;5005333;28;20559;-74
2023/05/02 08:41:15;;;;;;;23.07;20.90;;;14.60;90.10;;;;;;5007778;28;20470;-74
2023/05/02 08:43:42;;;;;;;23.07;20.87;;;14.70;85.60;;;;;;4997025;28;20567;-76
2023/05/02 08:46:10;;;;;;;25.20;22.57;;;15.00;89.30;;;;;;5002490;28;20472;-74
2023/05/02 08:48:40;;;;;;;23.53;21.17;;;15.10;86.20;;;;;;5008324;28;20470;-74
2023/05/02 08:51:09;;;;;;;24.43;22.20;;;15.30;85.20;;;;;;5008459;28;20461;-74
2023/05/02 08:53:37;;;;;;;22.47;20.37;;;15.40;84.60;;;;;;5000134;28;20575;-74
2023/05/02 08:56:06;;;;;;;21.90;19.80;;;15.50;81.10;;;;;;5009031;28;20453;-74
2023/05/02 08:58:33;;;;;;;23.60;21.30;;;15.70;79.10;;;;;;5003334;28;20604;-75
2023/05/02 09:01:02;;;;;;;23.60;21.20;;;16.00;81.70;;;;;;5004346;28;20476;-74
2023/05/02 09:03:31;;;;;;;22.43;20.30;;;16.20;79.20;;;;;;5002498;28;21265;-74
2023/05/02 09:06:12;;;;;;;25.43;22.30;;;16.10;78.20;;;;;;4993848;28;20464;-74
2023/05/02 09:08:41;;;;;;;23.63;21.50;;;16.20;76.50;;;;;;5001416;28;20473;-74
2023/05/02 09:11:10;;;;;;;23.30;21.00;;;16.30;75.30;;;;;;5000036;28;20462;-74
2023/05/02 09:13:38;;;;;;;21.43;19.53;;;16.30;77.40;;;;;;4995448;28;20479;-74
2023/05/02 09:16:07;;;;;;;22.80;20.57;;;16.50;74.60;;;;;;5006414;28;20467;-75
2023/05/02 09:18:35;;;;;;;23.47;21.00;;;16.70;75.20;;;;;;5005934;28;20854;-74
2023/05/02 09:21:07;;;;;;;24.27;22.10;;;16.60;73.10;;;;;;5003145;28;20992;-74
2023/05/02 09:23:37;;;;;;;22.80;20.50;;;16.70;72.90;;;;;;4990591;28;21493;-74
2023/05/02 09:26:16;;;;;;;23.43;21.30;;;16.70;73.20;;;;;;5010010;28;20958;-75
2023/05/02 09:28:44;;;;;;;24.27;21.97;;;16.50;71.10;;;;;;4994050;28;20888;-74
2023/05/02 09:31:12;;;;;;;23.97;21.67;;;16.40;72.40;;;;;;5001395;28;22274;-74
2023/05/02 09:33:39;;;;;;;23.93;21.70;;;16.50;73.50;;;;;;5001860;28;20481;-74
2023/05/02 09:36:09;;;;;;;24.33;21.93;;;16.40;73.60;;;;;;5008333;28;20465;-75
2023/05/02 09:38:38;;;;;;;23.63;21.33;;;16.50;75.10;;;;;;4996072;28;20505;-74
2023/05/02 09:41:05;;;;;;;23.77;21.30;;;16.50;75.60;;;;;;4996458;28;20544;-74
2023/05/02 09:43:32;;;;;;;22.90;20.67;;;16.70;73.80;;;;;;4999728;28;20861;-74
2023/05/02 09:46:02;;;;;;;22.90;20.80;;;17.30;71.40;;;;;;5002829;28;20481;-74
2023/05/02 09:48:30;;;;;;;24.13;22.03;;;18.30;69.60;;;;;;4995464;28;20463;-76
2023/05/02 09:50:57;;;;;;;22.23;20.37;;;18.60;66.30;;;;;;5003732;28;20471;-74
2023/05/02 09:53:28;;;;;;;23.27;21.13;;;18.70;63.80;;;;;;5002534;28;20481;-75
2023/05/02 09:56:02;;;;;;;24.77;22.27;;;18.30;67.10;;;;;;4996856;28;20553;-73
2023/05/02 09:58:30;;;;;;;25.33;23.03;;;18.30;64.80;;;;;;5000323;28;20942;-75
2023/05/02 10:00:58;;;;;;;26.17;23.67;;;18.00;67.40;;;;;;5000576;28;20524;-73
2023/05/02 10:03:26;;;;;;;25.03;22.43;;;18.20;67.00;;;;;;4997305;28;20491;-73
2023/05/02 10:05:54;;;;;;;24.80;22.43;;;18.10;67.20;;;;;;4999823;28;20473;-74
2023/05/02 10:08:22;;;;;;;25.33;22.60;;;17.70;68.50;;;;;;5003670;28;20464;-73
2023/05/02 10:10:53;;;;;;;24.80;22.27;;;17.70;70.10;;;;;;5010262;28;20461;-73
2023/05/02 10:13:23;;;;;;;24.57;22.37;;;17.90;68.30;;;;;;5001909;28;20491;-74
2023/05/02 10:15:55;;;;;;;24.57;22.20;;;18.30;66.10;;;;;;5002791;28;20500;-74
2023/05/02 10:18:27;;;;;;;24.53;22.23;;;18.50;65.30;;;;;;5008460;28;20472;-74
2023/05/02 10:20:57;;;;;;;24.87;22.73;;;18.50;66.50;;;;;;4993168;28;20476;-76
2023/05/02 10:23:26;;;;;;;24.97;22.77;;;18.60;65.50;;;;;;5006604;28;20486;-74
2023/05/02 10:25:58;;;;;;;23.37;21.37;;;18.90;66.70;;;;;;4992578;28;20467;-74
2023/05/02 10:28:27;;;;;;;23.17;21.13;;;19.60;62.50;;;;;;5002270;28;20477;-73
2023/05/02 10:30:54;;;;;;;23.40;21.23;;;19.60;60.40;;;;;;4996984;28;20500;-74
2023/05/02 10:33:23;;;;;;;23.70;21.43;;;19.70;61.40;;;;;;4995141;28;20506;-73
2023/05/02 10:35:50;;;;;;;21.53;19.63;;;20.10;63.50;;;;;;5006147;28;20626;-74
2023/05/02 10:38:19;;;;;;;22.37;20.57;;;20.90;58.60;;;;;;5004489;28;20929;-73
2023/05/02 10:40:58;;;;;;;22.43;20.43;;;21.60;54.40;;;;;;4998481;28;20506;-73
2023/05/02 10:43:28;;;;;;;21.10;19.20;;;22.00;54.30;;;;;;4993812;28;20585;-72
2023/05/02 10:45:55;;;;;;;21.73;19.93;;;22.20;53.50;;;;;;5003437;28;20467;-73
2023/05/02 10:48:25;;;;;;;21.90;20.10;;;21.70;51.70;;;;;;4999387;28;20459;-73
2023/05/02 10:50:54;;;;;;;24.17;22.17;;;21.10;54.70;;;;;;5005603;28;20514;-71
2023/05/02 10:53:29;;;;;;;25.40;23.20;;;20.50;55.80;;;;;;5000113;28;20484;-72
2023/05/02 10:56:15;;;;;;;21.70;19.80;;;19.50;57.10;;;;;;5005486;28;20466;-73
2023/05/02 10:58:43;;;;;;;22.73;20.43;;;18.90;60.30;;;;;;4998725;28;21348;-72
2023/05/02 11:01:33;;;;;;;24.00;21.83;;;18.40;61.50;;;;;;4995468;28;20735;-72
2023/05/02 11:04:02;;;;;;;22.27;20.23;;;18.10;61.20;;;;;;5002795;28;20514;-72
2023/05/02 11:06:32;;;;;;;23.77;21.37;;;18.20;60.00;;;;;;4996102;28;20550;-73
2023/05/02 11:09:31;;;;;;;20.27;18.47;;;18.90;58.70;;;;;;5005032;28;20516;-73
2023/05/02 11:12:01;;;;;;;22.10;19.90;;;20.20;57.40;;;;;;4996629;28;20467;-73
2023/05/02 11:14:48;;;;;;;19.67;17.80;;;20.90;53.60;;;;;;4991544;28;20511;-72
2023/05/02 11:17:16;;;;;;;20.33;18.53;;;20.00;54.40;;;;;;5001824;28;20584;-72
2023/05/02 11:20:28;;;;;;;19.87;17.87;;;18.90;56.50;;;;;;4991979;28;20847;-72
2023/05/02 11:23:20;;;;;;;20.77;18.53;;;18.40;58.00;;;;;;5010814;28;20579;-73
2023/05/02 11:25:48;;;;;;;20.73;18.73;;;18.20;58.90;;;;;;5006134;28;20466;-73
2023/05/02 11:28:40;;;;;;;22.20;18.87;;;18.00;59.50;;;;;;4992168;28;20474;-73
2023/05/02 11:31:08;;;;;;;20.07;17.93;;;18.30;59.10;;;;;;4992921;28;20463;-73
2023/05/02 11:33:35;;;;;;;21.07;19.17;;;18.90;58.80;;;;;;5003957;28;20907;-73
2023/05/02 11:36:02;;;;;;;20.90;18.87;;;19.30;56.50;;;;;;5007209;28;20465;-74
2023/05/02 11:38:36;;;;;;;22.30;20.23;;;19.30;54.50;;;;;;4988814;28;20473;-72
2023/05/02 11:41:03;;;;;;;21.50;19.30;;;19.80;55.00;;;;;;5003623;28;20464;-74
2023/05/02 11:43:30;;;;;;;22.10;19.83;;;20.10;55.30;;;;;;5000481;28;20496;-73
2023/05/02 11:46:00;;;;;;;20.53;18.30;;;20.50;52.60;;;;;;5009569;28;20564;-72
2023/05/02 11:48:27;;;;;;;20.40;18.40;;;20.70;53.60;;;;;;4999470;28;20477;-72
2023/05/02 11:50:56;;;;;;;22.60;20.37;;;20.80;52.70;;;;;;4992801;28;20469;-73
2023/05/02 11:53:24;;;;;;;21.07;19.17;;;20.80;50.60;;;;;;4996936;28;20477;-74
2023/05/02 11:55:53;;;;;;;21.80;19.90;;;20.70;50.10;;;;;;5007022;28;20474;-73
2023/05/02 11:58:21;;;;;;;22.77;20.57;;;21.20;52.20;;;;;;5006411;28;20464;-74
2023/05/02 12:00:49;;;;;;;23.67;21.47;;;21.70;49.50;;;;;;4995759;28;20474;-72
2023/05/02 12:03:28;;;;;;;22.17;20.07;;;22.30;49.70;;;;;;4995925;28;20493;-73
2023/05/02 12:05:55;;;;;;;21.73;19.57;;;23.50;48.50;;;;;;4994517;28;21304;-74
2023/05/02 12:08:24;;;;;;;22.30;20.40;;;24.40;47.00;;;;;;4998872;28;20467;-74
2023/05/02 12:10:52;;;;;;;24.00;21.90;;;24.30;48.10;;;;;;4997784;28;20961;-73
2023/05/02 12:13:22;;;;;;;23.00;20.80;;;23.50;47.20;;;;;;4993481;28;20490;-73
2023/05/02 12:15:50;;;;;;;23.50;21.20;;;22.90;49.00;;;;;;4999657;28;20467;-74
2023/05/02 12:18:17;;;;;;;21.97;19.77;;;21.50;48.80;;;;;;5007072;28;20476;-75
2023/05/02 12:20:46;;;;;;;21.03;18.90;;;19.50;51.50;;;;;;5001537;28;20462;-74
2023/05/02 12:23:13;;;;;;;20.20;18.27;;;18.30;55.10;;;;;;4996788;28;20557;-74
2023/05/02 12:25:41;;;;;;;22.20;20.00;;;17.70;56.30;;;;;;4991809;28;21092;-73
2023/05/02 12:28:09;;;;;;;26.20;23.60;;;17.20;59.80;;;;;;4996342;28;20471;-73
2023/05/02 12:30:39;;;;;;;30.03;25.77;;;16.70;70.60;;;;;;4992273;28;20470;-73
2023/05/02 12:33:07;;;;;;;27.80;24.80;;;16.50;79.50;;;;;;4997855;28;20463;-73
2023/05/02 12:35:35;;;;;;;28.27;24.97;;;16.70;75.90;;;;;;5002123;28;20474;-73
2023/05/02 12:38:12;;;;;;;28.77;25.77;;;16.80;78.90;;;;;;5001313;28;20458;-73
2023/05/02 12:40:45;;;;;;;26.20;23.37;;;17.10;79.80;;;;;;5018816;28;20466;-73